Quenames — WTU9038 — position and weather

sailwx.info

Track history (hours):
 
Tides and Currents Weather Stations Pressure Air Temp Water Temp Dewpoint Dewpoint Depression Visibility Wind Speed Wind Dir Waves Ship Positions

Quenames

Owner: BOSTON MARINE TRANSPORT INC, EAST BOSTON, MA. More information available from US FCC via Universal Licensing System and Coast Guard Vessel Documentation Center.

Last reported at 2016-Feb-14 14:34 UTC. Time now 2016-Feb-14 14:38 UTC.
Position N 40°39' W 074°05'.

Length 23 m; draft 3 m.

Type: Tug. MMSI: 367022790.

Date/timePositionNaut miles runAvg speedWind from/ knotsBaromVisibWave heightAir tempDewpointWater temp
2016-Feb-14 14:34N 40°39' W 074°05'0 0.0
2016-Feb-14 13:34N 40°39' W 074°05'0 0.0
2016-Feb-14 12:34N 40°39' W 074°05'0 0.5
2016-Feb-14 11:33N 40°39' W 074°05'1 0.8
2016-Feb-14 10:34N 40°40' W 074°04'0 0.0
2016-Feb-14 09:34N 40°40' W 074°04'0 0.0
2016-Feb-14 08:34N 40°40' W 074°04'0 0.4
2016-Feb-14 07:33N 40°40' W 074°05'0 0.0
2016-Feb-14 06:34N 40°40' W 074°05'0 0.0
2016-Feb-14 05:34N 40°40' W 074°05'0 0.0
2016-Feb-14 04:34N 40°40' W 074°05'0 0.0
2016-Feb-14 03:34N 40°40' W 074°05'0 0.0
2016-Feb-14 02:34N 40°40' W 074°05'2 2.4
2016-Feb-14 01:34N 40°39' W 074°07'5 0.5
2016-Feb-13 16:27N 40°36' W 074°12'0 0.0
2016-Feb-13 13:24N 40°36' W 074°12'0 0.0
2016-Feb-13 12:32N 40°36' W 074°12'  
2016-Feb-10 15:24N 40°39' W 074°11'4 4.1
2016-Feb-10 14:31N 40°39' W 074°07'0 0.1
2016-Feb-10 13:32N 40°39' W 074°07'0 0.1
2016-Feb-10 12:31N 40°39' W 074°07'0 0.0
2016-Feb-10 11:17N 40°39' W 074°07'0 0.0
2016-Feb-10 10:28N 40°39' W 074°07'0 0.0
2016-Feb-10 09:34N 40°39' W 074°07'0 0.0
2016-Feb-10 03:25N 40°39' W 074°07'0 0.0
2016-Feb-10 01:17N 40°39' W 074°07'3 4.3
2016-Feb-10 00:33N 40°39' W 074°11'2 0.2
2016-Feb-09 12:27N 40°37' W 074°12'6 7.2
2016-Feb-09 11:33N 40°39' W 074°04'1 0.5
2016-Feb-09 10:33N 40°38' W 074°04'0 0.2
2016-Feb-09 09:34N 40°38' W 074°04'0 0.0
2016-Feb-09 08:33N 40°38' W 074°04'0 0.0
2016-Feb-09 07:34N 40°38' W 074°04'0 0.3
2016-Feb-09 06:33N 40°38' W 074°03'1 1.4
2016-Feb-09 05:34N 40°39' W 074°03'0 0.0
2016-Feb-09 04:33N 40°39' W 074°03'0 0.0
2016-Feb-09 03:34N 40°39' W 074°03'0 0.0
2016-Feb-09 02:33N 40°39' W 074°03'0 0.0
2016-Feb-09 01:33N 40°39' W 074°03'0 0.0
2016-Feb-09 00:33N 40°39' W 074°03'0 0.1
2016-Feb-08 23:34N 40°39' W 074°03'0 0.0
2016-Feb-08 22:34N 40°39' W 074°02'0 0.0
2016-Feb-08 21:33N 40°39' W 074°03'0 0.0
2016-Feb-08 20:34N 40°39' W 074°03'0 0.0
2016-Feb-08 19:33N 40°39' W 074°03'0 0.0
2016-Feb-08 18:33N 40°39' W 074°03'0 0.0
2016-Feb-08 17:33N 40°39' W 074°03'0 0.0
2016-Feb-08 16:33N 40°39' W 074°03'0 0.0
2016-Feb-08 15:33N 40°39' W 074°03'0 0.0
2016-Feb-08 14:33N 40°39' W 074°03'0 0.0
2016-Feb-08 13:33N 40°39' W 074°03'0 0.1
2016-Feb-08 12:34N 40°39' W 074°03'0 0.0
2016-Feb-08 11:34N 40°39' W 074°03'0 0.1
2016-Feb-08 10:33N 40°39' W 074°03'0 0.0
2016-Feb-08 09:33N 40°39' W 074°03'0 0.0
2016-Feb-08 08:33N 40°39' W 074°03'0 0.0
2016-Feb-08 07:33N 40°39' W 074°03'0 0.0
2016-Feb-08 06:34N 40°39' W 074°03'0 0.0
2016-Feb-08 05:34N 40°39' W 074°03'0 0.0
2016-Feb-08 04:34N 40°39' W 074°03'0 0.0
2016-Feb-08 03:34N 40°39' W 074°03'0 0.0
2016-Feb-08 02:33N 40°39' W 074°03'0 0.1
2016-Feb-08 01:33N 40°39' W 074°03'0 0.0
2016-Feb-08 00:34N 40°39' W 074°03'0 0.0
2016-Feb-07 23:34N 40°39' W 074°03'1 0.6
2016-Feb-07 22:34N 40°39' W 074°03'4 4.3
2016-Feb-07 21:33N 40°39' W 074°09'0 0.1
2016-Feb-07 19:28N 40°39' W 074°09'0 0.0
2016-Feb-07 18:34N 40°38' W 074°09'1 0.1
2016-Feb-07 02:32N 40°39' W 074°08'4 3.6
2016-Feb-07 01:34N 40°39' W 074°03'0 0.0
2016-Feb-07 00:34N 40°39' W 074°03'0 0.0
2016-Feb-06 23:33N 40°39' W 074°03'0 0.0
2016-Feb-06 22:33N 40°39' W 074°03'0 0.0
2016-Feb-06 21:33N 40°39' W 074°03'0 0.0
2016-Feb-06 20:34N 40°39' W 074°03'0 0.1
2016-Feb-06 19:34N 40°38' W 074°03'1 0.6
2016-Feb-06 18:33N 40°38' W 074°03'0 0.0
2016-Feb-06 17:33N 40°38' W 074°03'0 0.1
2016-Feb-06 16:34N 40°38' W 074°03'3 2.5
2016-Feb-06 15:34N 40°40' W 074°04'1 0.6
2016-Feb-06 14:33N 40°40' W 074°05'0 0.0
2016-Feb-06 13:33N 40°40' W 074°05'0 0.0
2016-Feb-06 12:33N 40°40' W 074°05'0 0.0
2016-Feb-06 11:33N 40°40' W 074°05'0 0.0
2016-Feb-06 10:33N 40°40' W 074°05'0 0.0
2016-Feb-06 09:33N 40°40' W 074°05'0 0.0
2016-Feb-06 08:33N 40°40' W 074°05'0 0.0
2016-Feb-06 07:33N 40°40' W 074°05'0 0.0
2016-Feb-06 06:34N 40°40' W 074°05'0 0.0
2016-Feb-06 05:34N 40°40' W 074°05'0 0.0
2016-Feb-06 04:33N 40°40' W 074°05'0 0.0
2016-Feb-06 03:33N 40°40' W 074°05'0 0.0
2016-Feb-06 02:33N 40°40' W 074°05'0 0.0
2016-Feb-06 01:34N 40°40' W 074°05'1 1.3
2016-Feb-06 00:34N 40°39' W 074°05'1 1.0
2016-Feb-05 23:33N 40°39' W 074°07'0 0.0
2016-Feb-05 22:33N 40°39' W 074°07'0 0.0
2016-Feb-05 21:33N 40°39' W 074°07'0 0.0
2016-Feb-05 20:33N 40°39' W 074°07'0 0.0
2016-Feb-05 19:31N 40°39' W 074°07'0 0.0
2016-Feb-05 18:33N 40°39' W 074°07'0 0.0
2016-Feb-05 17:33N 40°39' W 074°07'5 0.3
2016-Feb-05 01:27N 40°37' W 074°12'1 0.2
2016-Feb-04 20:08N 40°38' W 074°12'0 0.0
2016-Feb-04 19:32N 40°38' W 074°12'5 4.9
2016-Feb-04 18:33N 40°39' W 074°06'7 6.7
2016-Feb-04 17:34N 40°42' W 073°58'0 0.0
2016-Feb-04 16:34N 40°42' W 073°58'0 0.0
2016-Feb-04 15:34N 40°42' W 073°58'  
Track history (hours):
 
Tides and Currents Weather Stations Pressure Air Temp Water Temp Dewpoint Dewpoint Depression Visibility Wind Speed Wind Dir Waves Ship Positions

Quenames

Owner: BOSTON MARINE TRANSPORT INC, EAST BOSTON, MA. More information available from US FCC via Universal Licensing System and Coast Guard Vessel Documentation Center.

Last reported at 2016-Feb-14 14:34 UTC. Time now 2016-Feb-14 14:38 UTC.
Position N 40°39' W 074°05'.

Length 23 m; draft 3 m.

Type: Tug. MMSI: 367022790.

Date/timePositionNaut miles runAvg speedWind from/ knotsBaromVisibWave heightAir tempDewpointWater temp
2016-Feb-14 14:34N 40°39' W 074°05'0 0.0
2016-Feb-14 13:34N 40°39' W 074°05'0 0.0
2016-Feb-14 12:34N 40°39' W 074°05'0 0.5
2016-Feb-14 11:33N 40°39' W 074°05'1 0.8
2016-Feb-14 10:34N 40°40' W 074°04'0 0.0
2016-Feb-14 09:34N 40°40' W 074°04'0 0.0
2016-Feb-14 08:34N 40°40' W 074°04'0 0.4
2016-Feb-14 07:33N 40°40' W 074°05'0 0.0
2016-Feb-14 06:34N 40°40' W 074°05'0 0.0
2016-Feb-14 05:34N 40°40' W 074°05'0 0.0
2016-Feb-14 04:34N 40°40' W 074°05'0 0.0
2016-Feb-14 03:34N 40°40' W 074°05'0 0.0
2016-Feb-14 02:34N 40°40' W 074°05'2 2.4
2016-Feb-14 01:34N 40°39' W 074°07'5 0.5
2016-Feb-13 16:27N 40°36' W 074°12'0 0.0
2016-Feb-13 13:24N 40°36' W 074°12'0 0.0
2016-Feb-13 12:32N 40°36' W 074°12'  
2016-Feb-10 15:24N 40°39' W 074°11'4 4.1
2016-Feb-10 14:31N 40°39' W 074°07'0 0.1
2016-Feb-10 13:32N 40°39' W 074°07'0 0.1
2016-Feb-10 12:31N 40°39' W 074°07'0 0.0
2016-Feb-10 11:17N 40°39' W 074°07'0 0.0
2016-Feb-10 10:28N 40°39' W 074°07'0 0.0
2016-Feb-10 09:34N 40°39' W 074°07'0 0.0
2016-Feb-10 03:25N 40°39' W 074°07'0 0.0
2016-Feb-10 01:17N 40°39' W 074°07'3 4.3
2016-Feb-10 00:33N 40°39' W 074°11'2 0.2
2016-Feb-09 12:27N 40°37' W 074°12'6 7.2
2016-Feb-09 11:33N 40°39' W 074°04'1 0.5
2016-Feb-09 10:33N 40°38' W 074°04'0 0.2
2016-Feb-09 09:34N 40°38' W 074°04'0 0.0
2016-Feb-09 08:33N 40°38' W 074°04'0 0.0
2016-Feb-09 07:34N 40°38' W 074°04'0 0.3
2016-Feb-09 06:33N 40°38' W 074°03'1 1.4
2016-Feb-09 05:34N 40°39' W 074°03'0 0.0
2016-Feb-09 04:33N 40°39' W 074°03'0 0.0
2016-Feb-09 03:34N 40°39' W 074°03'0 0.0
2016-Feb-09 02:33N 40°39' W 074°03'0 0.0
2016-Feb-09 01:33N 40°39' W 074°03'0 0.0
2016-Feb-09 00:33N 40°39' W 074°03'0 0.1
2016-Feb-08 23:34N 40°39' W 074°03'0 0.0
2016-Feb-08 22:34N 40°39' W 074°02'0 0.0
2016-Feb-08 21:33N 40°39' W 074°03'0 0.0
2016-Feb-08 20:34N 40°39' W 074°03'0 0.0
2016-Feb-08 19:33N 40°39' W 074°03'0 0.0
2016-Feb-08 18:33N 40°39' W 074°03'0 0.0
2016-Feb-08 17:33N 40°39' W 074°03'0 0.0
2016-Feb-08 16:33N 40°39' W 074°03'0 0.0
2016-Feb-08 15:33N 40°39' W 074°03'0 0.0
2016-Feb-08 14:33N 40°39' W 074°03'0 0.0
2016-Feb-08 13:33N 40°39' W 074°03'0 0.1
2016-Feb-08 12:34N 40°39' W 074°03'0 0.0
2016-Feb-08 11:34N 40°39' W 074°03'0 0.1
2016-Feb-08 10:33N 40°39' W 074°03'0 0.0
2016-Feb-08 09:33N 40°39' W 074°03'0 0.0
2016-Feb-08 08:33N 40°39' W 074°03'0 0.0
2016-Feb-08 07:33N 40°39' W 074°03'0 0.0
2016-Feb-08 06:34N 40°39' W 074°03'0 0.0
2016-Feb-08 05:34N 40°39' W 074°03'0 0.0
2016-Feb-08 04:34N 40°39' W 074°03'0 0.0
2016-Feb-08 03:34N 40°39' W 074°03'0 0.0
2016-Feb-08 02:33N 40°39' W 074°03'0 0.1
2016-Feb-08 01:33N 40°39' W 074°03'0 0.0
2016-Feb-08 00:34N 40°39' W 074°03'0 0.0
2016-Feb-07 23:34N 40°39' W 074°03'1 0.6
2016-Feb-07 22:34N 40°39' W 074°03'4 4.3
2016-Feb-07 21:33N 40°39' W 074°09'0 0.1
2016-Feb-07 19:28N 40°39' W 074°09'0 0.0
2016-Feb-07 18:34N 40°38' W 074°09'1 0.1
2016-Feb-07 02:32N 40°39' W 074°08'4 3.6
2016-Feb-07 01:34N 40°39' W 074°03'0 0.0
2016-Feb-07 00:34N 40°39' W 074°03'0 0.0
2016-Feb-06 23:33N 40°39' W 074°03'0 0.0
2016-Feb-06 22:33N 40°39' W 074°03'0 0.0
2016-Feb-06 21:33N 40°39' W 074°03'0 0.0
2016-Feb-06 20:34N 40°39' W 074°03'0 0.1
2016-Feb-06 19:34N 40°38' W 074°03'1 0.6
2016-Feb-06 18:33N 40°38' W 074°03'0 0.0
2016-Feb-06 17:33N 40°38' W 074°03'0 0.1
2016-Feb-06 16:34N 40°38' W 074°03'3 2.5
2016-Feb-06 15:34N 40°40' W 074°04'1 0.6
2016-Feb-06 14:33N 40°40' W 074°05'0 0.0
2016-Feb-06 13:33N 40°40' W 074°05'0 0.0
2016-Feb-06 12:33N 40°40' W 074°05'0 0.0
2016-Feb-06 11:33N 40°40' W 074°05'0 0.0
2016-Feb-06 10:33N 40°40' W 074°05'0 0.0
2016-Feb-06 09:33N 40°40' W 074°05'0 0.0
2016-Feb-06 08:33N 40°40' W 074°05'0 0.0
2016-Feb-06 07:33N 40°40' W 074°05'0 0.0
2016-Feb-06 06:34N 40°40' W 074°05'0 0.0
2016-Feb-06 05:34N 40°40' W 074°05'0 0.0
2016-Feb-06 04:33N 40°40' W 074°05'0 0.0
2016-Feb-06 03:33N 40°40' W 074°05'0 0.0
2016-Feb-06 02:33N 40°40' W 074°05'0 0.0
2016-Feb-06 01:34N 40°40' W 074°05'1 1.3
2016-Feb-06 00:34N 40°39' W 074°05'1 1.0
2016-Feb-05 23:33N 40°39' W 074°07'0 0.0
2016-Feb-05 22:33N 40°39' W 074°07'0 0.0
2016-Feb-05 21:33N 40°39' W 074°07'0 0.0
2016-Feb-05 20:33N 40°39' W 074°07'0 0.0
2016-Feb-05 19:31N 40°39' W 074°07'0 0.0
2016-Feb-05 18:33N 40°39' W 074°07'0 0.0
2016-Feb-05 17:33N 40°39' W 074°07'5 0.3
2016-Feb-05 01:27N 40°37' W 074°12'1 0.2
2016-Feb-04 20:08N 40°38' W 074°12'0 0.0
2016-Feb-04 19:32N 40°38' W 074°12'5 4.9
2016-Feb-04 18:33N 40°39' W 074°06'7 6.7
2016-Feb-04 17:34N 40°42' W 073°58'0 0.0
2016-Feb-04 16:34N 40°42' W 073°58'0 0.0
2016-Feb-04 15:34N 40°42' W 073°58'  

Dump ship's entire track history